Time;durP1;ratioP1;P1;durP2;ratioP2;P2;SDS_P1;SDS_P2;PMS_P1;PMS_P2;Temp;Humidity;BMP_temperature;BMP_pressure;BME280_temperature;BME280_humidity;BME280_pressure;Samples;Min_cycle;Max_cycle;Signal;HPM_P1;HPM_P2
2022/11/08 05:00:21;;;;;;;6.13;1.30;;;11.20;99.90;;;;;;6032911;23;20706;-68
2022/11/08 05:02:48;;;;;;;1.85;0.95;;;11.20;99.90;;;;;;6063732;23;20171;-68
2022/11/08 05:05:15;;;;;;;1.10;0.95;;;11.20;99.90;;;;;;6063835;23;20544;-67
2022/11/08 05:07:41;;;;;;;1.00;0.93;;;11.20;99.90;;;;;;6063959;23;20190;-68
2022/11/08 05:10:08;;;;;;;2.15;1.98;;;11.20;99.90;;;;;;6063745;23;20182;-68
2022/11/08 05:12:35;;;;;;;2.42;1.23;;;11.20;99.90;;;;;;6034447;23;20192;-68
2022/11/08 05:15:02;;;;;;;2.13;1.13;;;11.20;99.90;;;;;;6033694;23;20233;-67
2022/11/08 05:17:30;;;;;;;6.53;1.30;;;11.20;99.90;;;;;;6035118;23;20182;-68
2022/11/08 05:25:25;;;;;;;0.70;0.70;;;11.10;99.90;;;;;;6034780;23;20188;-67
2022/11/08 05:27:52;;;;;;;0.93;0.93;;;11.10;99.90;;;;;;6043378;23;20284;-67
2022/11/08 05:30:18;;;;;;;0.98;0.98;;;11.00;99.90;;;;;;6035315;23;20186;-67
2022/11/08 05:32:46;;;;;;;1.52;1.52;;;11.10;99.90;;;;;;6034744;23;20186;-67
2022/11/08 05:35:13;;;;;;;5.05;1.33;;;11.10;99.90;;;;;;6035843;23;20216;-67
2022/11/08 05:37:41;;;;;;;1.20;1.10;;;11.10;99.90;;;;;;6034071;23;20183;-67
2022/11/08 05:40:10;;;;;;;9.05;1.92;;;11.00;99.90;;;;;;6033130;23;20187;-67
2022/11/08 05:42:36;;;;;;;0.50;0.50;;;11.00;99.90;;;;;;6034820;23;20188;-67
2022/11/08 05:45:03;;;;;;;1.30;1.30;;;11.00;99.90;;;;;;6035881;23;20179;-67
2022/11/08 05:47:30;;;;;;;5.63;1.85;;;11.00;99.90;;;;;;6035025;23;20190;-67
2022/11/08 05:49:58;;;;;;;1.60;0.80;;;11.00;99.90;;;;;;6035861;23;20185;-67
2022/11/08 05:52:25;;;;;;;1.10;1.10;;;11.00;99.90;;;;;;6035692;23;20228;-67
2022/11/08 05:54:52;;;;;;;1.02;1.02;;;11.00;99.90;;;;;;6033547;23;20193;-67
2022/11/08 05:57:19;;;;;;;2.65;1.52;;;11.00;99.90;;;;;;6036113;23;20185;-67
2022/11/08 05:59:45;;;;;;;3.03;1.20;;;11.00;99.90;;;;;;6034768;23;20185;-67
2022/11/08 06:02:12;;;;;;;0.90;0.90;;;11.00;99.90;;;;;;6033767;23;20224;-67
2022/11/08 06:04:39;;;;;;;0.70;0.70;;;11.00;99.90;;;;;;6033663;23;20186;-67
2022/11/08 06:07:07;;;;;;;2.80;1.70;;;11.00;99.90;;;;;;6035811;23;20205;-67
2022/11/08 06:09:33;;;;;;;0.80;0.80;;;11.00;99.90;;;;;;6033898;23;20691;-67
2022/11/08 06:12:00;;;;;;;0.75;0.75;;;11.00;99.90;;;;;;6035772;23;20213;-67
2022/11/08 06:14:27;;;;;;;1.40;0.88;;;11.00;99.90;;;;;;6034394;23;20510;-67
2022/11/08 06:16:54;;;;;;;1.27;1.27;;;11.00;99.90;;;;;;6034651;23;20309;-67
2022/11/08 06:19:20;;;;;;;1.25;1.25;;;11.00;99.90;;;;;;6035081;23;20184;-67
2022/11/08 06:21:47;;;;;;;2.10;1.13;;;11.00;99.90;;;;;;6035182;23;20216;-67
2022/11/08 06:24:17;;;;;;;1.10;1.10;;;11.00;99.90;;;;;;6033725;23;20194;-67
2022/11/08 06:26:43;;;;;;;5.63;1.20;;;11.00;99.90;;;;;;6035130;23;20189;-68
2022/11/08 06:29:10;;;;;;;2.53;1.20;;;11.00;99.90;;;;;;6034632;23;20209;-67
2022/11/08 06:31:37;;;;;;;1.95;1.17;;;11.00;99.90;;;;;;6034662;23;20857;-66
2022/11/08 06:34:04;;;;;;;0.70;0.70;;;11.10;99.90;;;;;;6034471;23;20191;-66
2022/11/08 06:36:30;;;;;;;2.45;1.10;;;11.10;99.90;;;;;;6035150;23;20230;-66
2022/11/08 06:38:57;;;;;;;5.65;2.42;;;11.00;99.90;;;;;;6034688;23;20196;-66
2022/11/08 06:41:28;;;;;;;0.77;0.77;;;11.10;99.90;;;;;;6034648;23;20892;-66
2022/11/08 06:43:55;;;;;;;1.92;1.83;;;11.10;99.90;;;;;;6034537;23;20168;-66
2022/11/08 06:46:22;;;;;;;0.65;0.60;;;11.10;99.90;;;;;;6035188;23;20278;-68
2022/11/08 06:48:49;;;;;;;1.73;1.20;;;11.20;99.90;;;;;;6034605;23;20207;-67
2022/11/08 06:51:15;;;;;;;1.85;1.75;;;11.10;99.90;;;;;;6034460;23;20206;-67
2022/11/08 06:53:42;;;;;;;5.13;2.90;;;11.10;99.90;;;;;;6033998;23;20185;-67
2022/11/08 06:56:09;;;;;;;0.73;0.73;;;11.10;99.90;;;;;;6035230;23;20516;-67
2022/11/08 06:58:37;;;;;;;3.50;1.35;;;11.10;99.90;;;;;;6035330;23;20182;-67
2022/11/08 07:01:06;;;;;;;0.90;0.90;;;11.20;99.90;;;;;;6033714;23;20753;-68
2022/11/08 07:03:33;;;;;;;1.85;1.77;;;11.10;99.90;;;;;;6034905;23;20591;-68
2022/11/08 07:06:01;;;;;;;1.80;1.20;;;11.10;99.90;;;;;;6035344;23;20199;-68
2022/11/08 07:08:28;;;;;;;2.58;1.40;;;11.10;99.90;;;;;;6034201;23;20263;-68
2022/11/08 07:10:55;;;;;;;1.15;1.00;;;11.10;99.90;;;;;;6034577;23;20203;-68
2022/11/08 07:13:21;;;;;;;1.40;1.33;;;11.10;99.90;;;;;;6034289;23;20198;-68
2022/11/08 07:15:49;;;;;;;1.95;1.45;;;11.10;99.90;;;;;;6033617;23;20671;-68
2022/11/08 07:18:18;;;;;;;2.30;2.20;;;11.10;99.90;;;;;;6035088;23;20187;-68
2022/11/08 07:20:45;;;;;;;6.38;1.80;;;11.10;99.90;;;;;;6035055;23;20209;-68
2022/11/08 07:23:13;;;;;;;5.65;1.80;;;11.10;99.90;;;;;;6033144;23;20187;-68
2022/11/08 07:25:40;;;;;;;1.20;1.20;;;11.10;99.90;;;;;;6043487;23;20186;-68
2022/11/08 07:28:12;;;;;;;1.10;1.10;;;11.10;99.90;;;;;;6035916;23;20637;-68
2022/11/08 07:30:39;;;;;;;1.60;1.00;;;11.10;99.90;;;;;;6038306;23;20222;-68
2022/11/08 07:33:07;;;;;;;1.45;1.25;;;11.10;99.90;;;;;;6037155;23;20625;-68
2022/11/08 07:35:34;;;;;;;0.90;0.90;;;11.10;99.90;;;;;;6038916;23;20240;-69
2022/11/08 07:38:00;;;;;;;0.75;0.75;;;11.20;99.90;;;;;;6038306;23;20189;-68
2022/11/08 07:40:27;;;;;;;2.17;2.08;;;11.30;99.90;;;;;;6036659;23;20205;-68
2022/11/08 07:42:57;;;;;;;4.03;1.85;;;11.30;99.90;;;;;;6036883;23;20473;-68
2022/11/08 07:45:25;;;;;;;5.20;1.48;;;11.30;99.90;;;;;;6036261;23;20205;-68
2022/11/08 07:47:57;;;;;;;1.95;1.27;;;11.30;99.90;;;;;;6037598;23;20193;-66
2022/11/08 07:50:25;;;;;;;3.33;1.13;;;11.40;99.90;;;;;;6038138;23;20185;-66
2022/11/08 07:52:52;;;;;;;1.30;1.20;;;11.40;99.90;;;;;;6037229;23;20190;-66
2022/11/08 07:55:18;;;;;;;1.67;1.08;;;11.50;99.90;;;;;;6037762;23;20187;-66
2022/11/08 07:57:45;;;;;;;1.38;0.90;;;11.50;99.90;;;;;;6035873;23;20194;-66
2022/11/08 08:00:14;;;;;;;1.02;1.02;;;11.60;99.90;;;;;;6038072;23;20187;-66
2022/11/08 08:02:40;;;;;;;1.20;1.20;;;11.60;99.90;;;;;;6037458;23;20191;-66
2022/11/08 08:05:08;;;;;;;2.83;1.02;;;11.60;99.90;;;;;;6039415;23;20530;-67
2022/11/08 08:07:36;;;;;;;0.70;0.70;;;11.70;99.90;;;;;;6038091;23;20199;-66
2022/11/08 08:10:04;;;;;;;0.93;0.93;;;11.70;99.90;;;;;;6036191;23;20198;-66
2022/11/08 08:12:30;;;;;;;1.65;1.10;;;11.70;99.90;;;;;;6036389;23;20203;-67
2022/11/08 08:14:57;;;;;;;0.90;0.90;;;11.70;99.90;;;;;;6037552;23;20187;-67
2022/11/08 08:17:24;;;;;;;1.57;1.47;;;11.70;99.90;;;;;;6038619;23;20219;-67
2022/11/08 08:19:50;;;;;;;0.95;0.95;;;11.70;99.90;;;;;;6038934;23;20434;-67
2022/11/08 08:22:17;;;;;;;1.60;1.17;;;11.80;99.90;;;;;;6038755;23;20208;-68
2022/11/08 08:24:45;;;;;;;3.63;1.52;;;11.80;99.90;;;;;;6035901;23;20188;-68
2022/11/08 08:27:12;;;;;;;0.93;0.90;;;12.10;99.90;;;;;;6044094;23;20202;-67
2022/11/08 08:29:39;;;;;;;1.23;1.15;;;12.40;99.90;;;;;;6081698;23;20236;-70
2022/11/08 08:32:05;;;;;;;0.80;0.73;;;12.80;99.90;;;;;;6095727;23;20185;-70
2022/11/08 08:34:32;;;;;;;1.67;0.80;;;12.70;99.90;;;;;;6094698;23;20429;-69
2022/11/08 08:36:59;;;;;;;0.80;0.80;;;12.50;99.90;;;;;;6093922;23;20462;-69
2022/11/08 08:39:25;;;;;;;0.87;0.87;;;12.30;99.90;;;;;;6092801;23;20878;-69
2022/11/08 08:41:53;;;;;;;0.60;0.60;;;12.30;99.90;;;;;;6094593;23;20427;-70
2022/11/08 08:44:20;;;;;;;5.60;0.60;;;12.30;99.90;;;;;;6093193;23;20732;-70
2022/11/08 08:46:47;;;;;;;0.77;0.77;;;12.40;99.90;;;;;;6094114;23;20423;-70
2022/11/08 08:49:14;;;;;;;1.20;1.20;;;12.40;99.90;;;;;;6093493;23;20952;-68
2022/11/08 08:51:40;;;;;;;1.20;1.20;;;12.50;99.90;;;;;;6092275;23;20953;-68
2022/11/08 08:54:07;;;;;;;0.90;0.90;;;12.50;99.90;;;;;;6093580;23;20438;-68
2022/11/08 08:56:34;;;;;;;4.00;1.30;;;12.60;99.90;;;;;;6093108;23;20446;-69
2022/11/08 08:59:02;;;;;;;1.20;1.10;;;12.60;99.90;;;;;;6092979;23;20446;-69
2022/11/08 09:01:28;;;;;;;11.73;2.13;;;12.60;99.90;;;;;;6093357;23;20427;-69
2022/11/08 09:03:57;;;;;;;0.83;0.80;;;12.60;99.90;;;;;;6092184;23;20902;-69
2022/11/08 09:06:23;;;;;;;2.30;1.07;;;12.60;99.90;;;;;;6093556;23;20457;-69
2022/11/08 09:08:50;;;;;;;2.33;1.53;;;12.60;99.90;;;;;;6092871;23;20446;-69
2022/11/08 09:11:17;;;;;;;5.20;1.20;;;12.50;99.90;;;;;;6093616;23;20433;-69
2022/11/08 09:13:44;;;;;;;0.50;0.50;;;12.50;99.90;;;;;;6093050;23;20427;-69
2022/11/08 09:16:13;;;;;;;0.70;0.70;;;12.60;99.90;;;;;;6093366;23;20977;-70
2022/11/08 09:18:40;;;;;;;0.97;0.87;;;12.60;99.90;;;;;;6091925;23;20446;-70
2022/11/08 09:21:07;;;;;;;0.87;0.87;;;12.60;99.90;;;;;;6093162;23;20431;-70
2022/11/08 09:23:33;;;;;;;1.60;1.50;;;12.70;99.90;;;;;;6092676;23;20791;-70
2022/11/08 09:26:02;;;;;;;0.87;0.87;;;12.70;99.90;;;;;;6093107;23;20434;-69
2022/11/08 09:28:31;;;;;;;0.63;0.63;;;12.70;99.90;;;;;;6094314;23;20459;-70
2022/11/08 09:31:00;;;;;;;1.53;1.00;;;12.80;99.90;;;;;;6093804;23;20479;-70
2022/11/08 09:33:28;;;;;;;2.00;1.37;;;12.80;99.90;;;;;;6092601;23;20482;-69
2022/11/08 09:35:55;;;;;;;2.20;0.90;;;12.90;99.90;;;;;;6093442;23;20427;-69
2022/11/08 09:38:21;;;;;;;0.90;0.90;;;12.90;99.90;;;;;;6091968;23;20446;-69
2022/11/08 09:40:55;;;;;;;0.83;0.83;;;13.00;99.90;;;;;;6090495;23;20426;-69
2022/11/08 09:43:37;;;;;;;5.70;0.90;;;13.10;99.90;;;;;;6092497;23;20411;-70
2022/11/08 09:46:04;;;;;;;0.50;0.50;;;13.10;99.90;;;;;;6092940;23;20415;-70
2022/11/08 09:48:36;;;;;;;1.03;1.00;;;13.20;99.90;;;;;;6093545;23;20452;-70
2022/11/08 09:51:07;;;;;;;1.40;1.10;;;13.30;99.90;;;;;;6092661;23;21047;-70
2022/11/08 09:53:40;;;;;;;0.97;0.90;;;13.40;99.90;;;;;;6092341;23;20421;-69
2022/11/08 09:56:16;;;;;;;1.90;1.30;;;13.40;99.90;;;;;;6092395;23;20741;-69
2022/11/08 09:58:50;;;;;;;0.70;0.70;;;13.50;99.90;;;;;;6092069;23;20462;-72
2022/11/08 10:01:17;;;;;;;0.67;0.67;;;13.50;99.90;;;;;;6094206;23;20419;-70
2022/11/08 10:03:48;;;;;;;1.03;1.03;;;13.50;99.90;;;;;;6094750;23;20531;-70
2022/11/08 10:06:40;;;;;;;0.60;0.60;;;13.60;99.90;;;;;;6094175;23;20410;-69
2022/11/08 10:09:22;;;;;;;1.03;0.83;;;13.70;99.90;;;;;;6093286;23;20451;-69
2022/11/08 10:12:14;;;;;;;0.83;0.83;;;13.80;99.90;;;;;;6094225;23;20846;-70
2022/11/08 10:14:53;;;;;;;0.93;0.93;;;13.90;99.90;;;;;;6086054;23;20431;-70
2022/11/08 10:17:45;;;;;;;0.70;0.70;;;14.00;99.90;;;;;;6092404;23;20937;-67
2022/11/08 10:20:23;;;;;;;0.77;0.53;;;14.00;99.90;;;;;;6093142;23;20498;-69
2022/11/08 10:22:54;;;;;;;1.07;1.07;;;14.00;99.90;;;;;;6091506;23;21238;-69
2022/11/08 10:25:25;;;;;;;1.17;0.87;;;14.00;99.90;;;;;;6093093;23;20431;-68
2022/11/08 10:27:54;;;;;;;1.13;1.13;;;14.10;99.90;;;;;;6092530;23;20407;-73
2022/11/08 10:30:24;;;;;;;1.30;1.30;;;14.10;99.90;;;;;;6092189;23;20988;-69
2022/11/08 10:32:53;;;;;;;0.80;0.80;;;14.10;99.90;;;;;;6090561;23;20432;-69
2022/11/08 10:35:29;;;;;;;0.70;0.70;;;14.10;99.90;;;;;;6093179;23;20452;-69
2022/11/08 10:37:59;;;;;;;0.63;0.63;;;14.20;99.90;;;;;;6092346;23;20465;-69
2022/11/08 10:40:36;;;;;;;0.63;0.63;;;14.20;99.90;;;;;;6091892;23;20438;-70
2022/11/08 10:43:10;;;;;;;3.67;0.83;;;14.20;99.90;;;;;;6090731;23;20423;-68
2022/11/08 10:45:37;;;;;;;1.73;0.93;;;14.30;99.90;;;;;;6092484;23;20416;-70
2022/11/08 10:48:03;;;;;;;0.40;0.40;;;14.30;99.90;;;;;;6092327;23;20430;-69
2022/11/08 10:50:41;;;;;;;2.63;0.57;;;14.30;99.90;;;;;;6093226;23;20433;-70
2022/11/08 10:53:16;;;;;;;1.00;1.00;;;14.30;99.90;;;;;;6091080;23;21221;-68
2022/11/08 10:55:48;;;;;;;1.70;0.80;;;14.40;99.90;;;;;;6091794;23;20525;-69
2022/11/08 10:58:29;;;;;;;0.87;0.60;;;14.50;99.90;;;;;;6091771;23;20433;-69
2022/11/08 11:01:01;;;;;;;0.90;0.90;;;14.60;99.90;;;;;;6093188;23;20411;-69
2022/11/08 11:03:29;;;;;;;0.70;0.70;;;14.60;99.90;;;;;;6090466;23;20416;-69
2022/11/08 11:05:59;;;;;;;0.50;0.50;;;14.80;99.90;;;;;;6090832;23;20930;-69
2022/11/08 11:08:26;;;;;;;4.10;1.00;;;14.80;99.90;;;;;;6093765;23;20437;-70
2022/11/08 11:10:53;;;;;;;0.57;0.57;;;14.90;99.90;;;;;;6095382;23;20432;-69
2022/11/08 11:13:22;;;;;;;1.03;1.03;;;15.00;99.90;;;;;;6093943;23;20428;-69
2022/11/08 11:15:52;;;;;;;0.80;0.80;;;15.10;99.90;;;;;;6095037;23;20428;-68
2022/11/08 11:18:23;;;;;;;1.10;1.10;;;15.20;99.90;;;;;;6091747;23;20459;-71
2022/11/08 11:21:12;;;;;;;2.53;0.83;;;15.30;99.90;;;;;;6088841;23;20420;-69
2022/11/08 11:23:44;;;;;;;0.60;0.60;;;15.30;99.90;;;;;;6090802;23;20412;-70
2022/11/08 11:26:19;;;;;;;0.37;0.37;;;15.40;99.90;;;;;;6092965;23;20435;-69
2022/11/08 11:29:07;;;;;;;0.50;0.50;;;15.40;99.90;;;;;;6092667;23;20452;-69
2022/11/08 11:31:35;;;;;;;0.33;0.33;;;15.50;99.90;;;;;;6094343;23;20419;-69
2022/11/08 11:34:24;;;;;;;0.50;0.37;;;15.50;99.90;;;;;;6094249;23;20425;-69
2022/11/08 11:36:55;;;;;;;0.27;0.27;;;15.60;99.90;;;;;;6093373;23;20434;-68
2022/11/08 11:39:26;;;;;;;1.67;0.50;;;15.60;99.90;;;;;;6092683;23;20447;-69
2022/11/08 11:42:00;;;;;;;0.30;0.30;;;15.60;99.90;;;;;;6092433;23;20417;-68
2022/11/08 11:44:29;;;;;;;0.30;0.30;;;15.70;99.90;;;;;;6090515;23;20409;-69
2022/11/08 11:47:02;;;;;;;0.43;0.43;;;15.60;99.90;;;;;;6093515;23;20421;-70
2022/11/08 11:49:30;;;;;;;0.27;0.27;;;15.60;99.90;;;;;;6093825;23;20986;-68
2022/11/08 11:51:58;;;;;;;0.50;0.50;;;15.70;99.90;;;;;;6091612;23;20438;-68
2022/11/08 11:54:28;;;;;;;2.17;0.53;;;15.70;99.90;;;;;;6091581;23;20412;-68
2022/11/08 11:56:59;;;;;;;0.53;0.53;;;15.70;99.90;;;;;;6092847;23;20449;-69
2022/11/08 11:59:52;;;;;;;0.37;0.37;;;15.70;99.90;;;;;;6091669;23;20447;-69
2022/11/08 12:03:01;;;;;;;0.50;0.50;;;15.80;99.90;;;;;;6092991;23;20416;-68
2022/11/08 12:05:38;;;;;;;0.47;0.47;;;15.80;99.90;;;;;;5995173;23;20976;-69
2022/11/08 12:08:27;;;;;;;0.50;0.50;;;15.90;99.90;;;;;;6090718;23;20413;-68
2022/11/08 12:11:15;;;;;;;0.60;0.57;;;15.90;99.90;;;;;;6091247;23;20976;-68
2022/11/08 12:13:53;;;;;;;0.93;0.70;;;15.90;99.90;;;;;;6091629;23;20405;-69
2022/11/08 12:16:25;;;;;;;0.40;0.40;;;15.90;99.90;;;;;;6094466;23;20404;-69
2022/11/08 12:19:20;;;;;;;0.53;0.53;;;16.00;99.90;;;;;;6094655;23;20544;-66
2022/11/08 12:21:56;;;;;;;1.70;0.60;;;16.00;99.90;;;;;;6096135;23;20434;-69
2022/11/08 12:24:46;;;;;;;1.53;1.17;;;16.10;99.90;;;;;;6094002;23;20418;-70
2022/11/08 12:27:20;;;;;;;0.57;0.57;;;16.00;99.90;;;;;;6091548;23;20414;-70
2022/11/08 12:29:58;;;;;;;0.40;0.40;;;16.00;99.90;;;;;;6094424;23;20452;-69
2022/11/08 12:32:46;;;;;;;0.43;0.43;;;16.00;99.90;;;;;;6096770;23;20419;-70
2022/11/08 12:35:28;;;;;;;0.67;0.40;;;16.00;99.90;;;;;;6097953;23;20421;-70
2022/11/08 12:38:04;;;;;;;1.60;0.83;;;15.90;99.90;;;;;;6097605;23;20445;-70
2022/11/08 12:40:38;;;;;;;0.40;0.40;;;15.90;99.90;;;;;;6097779;23;20733;-70
2022/11/08 12:43:30;;;;;;;0.27;0.27;;;16.00;99.90;;;;;;6095979;23;20705;-70
2022/11/08 12:46:08;;;;;;;0.20;0.20;;;16.00;99.90;;;;;;6091802;23;20434;-69
2022/11/08 12:49:03;;;;;;;0.40;0.40;;;16.00;99.90;;;;;;6095943;23;20443;-69
2022/11/08 12:51:43;;;;;;;0.30;0.30;;;16.00;99.90;;;;;;6096265;23;20489;-69
2022/11/08 12:54:31;;;;;;;0.40;0.40;;;15.90;99.90;;;;;;6094005;23;20415;-70
2022/11/08 12:57:02;;;;;;;0.40;0.40;;;15.90;99.90;;;;;;6095927;23;20903;-70
2022/11/08 12:59:33;;;;;;;1.40;0.50;;;15.90;99.90;;;;;;6096371;23;20449;-70
2022/11/08 13:02:02;;;;;;;0.30;0.30;;;15.80;99.90;;;;;;6095954;23;20463;-70
2022/11/08 13:04:45;;;;;;;0.23;0.23;;;15.80;99.90;;;;;;6094924;23;20923;-70
2022/11/08 13:07:22;;;;;;;0.77;0.77;;;15.80;99.90;;;;;;6095496;23;20421;-70
2022/11/08 13:09:55;;;;;;;3.73;0.67;;;15.80;99.90;;;;;;6094869;23;21010;-70
2022/11/08 13:12:33;;;;;;;0.60;0.60;;;15.90;99.90;;;;;;6096118;23;20410;-70
2022/11/08 13:15:00;;;;;;;0.50;0.50;;;15.80;99.90;;;;;;6095179;23;20411;-69
2022/11/08 13:17:28;;;;;;;0.53;0.50;;;15.80;99.90;;;;;;6095548;23;20459;-70
2022/11/08 13:20:04;;;;;;;0.50;0.50;;;15.80;99.90;;;;;;6094798;23;20444;-70
2022/11/08 13:22:46;;;;;;;2.80;0.27;;;15.70;99.90;;;;;;6094636;23;20740;-69
2022/11/08 13:25:37;;;;;;;0.60;0.60;;;15.70;99.90;;;;;;6094326;23;20432;-69
2022/11/08 13:28:36;;;;;;;0.60;0.60;;;15.70;99.90;;;;;;6093960;23;20420;-69
2022/11/08 13:31:15;;;;;;;4.33;0.67;;;15.70;99.90;;;;;;6092674;23;20424;-69
2022/11/08 13:33:47;;;;;;;0.70;0.60;;;15.70;99.90;;;;;;6092388;23;20409;-69
2022/11/08 13:36:26;;;;;;;0.30;0.30;;;15.70;99.90;;;;;;6094539;23;20406;-70
2022/11/08 13:39:03;;;;;;;0.40;0.40;;;15.60;99.90;;;;;;6093517;23;21167;-70
2022/11/08 13:41:30;;;;;;;1.03;0.53;;;15.60;99.90;;;;;;6092860;23;20436;-68
2022/11/08 13:43:58;;;;;;;1.23;1.13;;;15.60;99.90;;;;;;6090804;23;20427;-69
2022/11/08 13:46:46;;;;;;;0.30;0.30;;;15.60;99.90;;;;;;6092644;23;20424;-71
2022/11/08 13:49:18;;;;;;;0.30;0.30;;;15.60;99.90;;;;;;6093781;23;20453;-70
2022/11/08 13:51:46;;;;;;;0.73;0.60;;;15.60;99.90;;;;;;6093593;23;20704;-71
2022/11/08 13:54:51;;;;;;;0.50;0.50;;;15.60;99.90;;;;;;6091553;23;20425;-69
2022/11/08 13:57:39;;;;;;;0.70;0.70;;;15.60;99.90;;;;;;6092201;23;20967;-69
2022/11/08 14:00:34;;;;;;;0.40;0.40;;;15.60;99.90;;;;;;6093088;23;20783;-71
2022/11/08 14:03:01;;;;;;;0.67;0.67;;;15.60;99.90;;;;;;6093577;23;20477;-69
2022/11/08 14:05:31;;;;;;;0.47;0.47;;;15.60;99.90;;;;;;6093926;23;20463;-69
2022/11/08 14:08:14;;;;;;;0.53;0.53;;;15.60;99.90;;;;;;6092722;23;20438;-69
2022/11/08 14:11:03;;;;;;;4.90;0.80;;;15.60;99.90;;;;;;6093600;23;20412;-70
2022/11/08 14:13:38;;;;;;;0.33;0.33;;;15.60;99.90;;;;;;6093140;23;20412;-69
2022/11/08 14:16:14;;;;;;;0.30;0.30;;;15.50;99.90;;;;;;6093473;23;20437;-70
2022/11/08 14:18:41;;;;;;;0.47;0.47;;;15.50;99.90;;;;;;6093465;23;20765;-70
2022/11/08 14:21:08;;;;;;;0.40;0.40;;;15.50;99.90;;;;;;6093268;23;20426;-69
2022/11/08 14:23:39;;;;;;;0.30;0.30;;;15.50;99.90;;;;;;6089147;23;20446;-69
2022/11/08 14:26:11;;;;;;;0.60;0.60;;;15.40;99.90;;;;;;6091044;23;20416;-69
2022/11/08 14:28:40;;;;;;;0.60;0.37;;;15.40;99.90;;;;;;6093449;23;20459;-69
2022/11/08 14:31:24;;;;;;;0.30;0.30;;;15.40;99.90;;;;;;6093313;23;20919;-68
2022/11/08 14:33:51;;;;;;;0.60;0.60;;;15.40;99.90;;;;;;6092287;23;20903;-68
2022/11/08 14:36:20;;;;;;;1.70;0.93;;;15.40;99.90;;;;;;6092293;23;20433;-68
2022/11/08 14:41:22;;;;;;;0.30;0.30;;;15.40;99.90;;;;;;6092479;23;20425;-67
2022/11/08 14:43:50;;;;;;;0.50;0.50;;;15.40;99.90;;;;;;6093167;23;20779;-70
2022/11/08 14:46:28;;;;;;;0.77;0.37;;;15.50;99.90;;;;;;6092825;23;20424;-72
2022/11/08 14:48:56;;;;;;;0.50;0.50;;;15.60;99.90;;;;;;6090468;23;20401;-70
2022/11/08 14:51:24;;;;;;;0.40;0.40;;;15.60;99.90;;;;;;6063643;23;20421;-70
2022/11/08 14:53:52;;;;;;;1.60;0.50;;;15.60;99.90;;;;;;6061975;23;20426;-71
2022/11/08 14:56:21;;;;;;;0.47;0.47;;;15.60;99.90;;;;;;6063987;23;20526;-67
2022/11/08 14:58:49;;;;;;;0.30;0.30;;;15.50;99.90;;;;;;6063612;23;20447;-65
2022/11/08 15:01:19;;;;;;;1.30;1.17;;;15.40;99.90;;;;;;6062597;23;20460;-65
2022/11/08 15:03:53;;;;;;;0.37;0.37;;;15.30;99.90;;;;;;6063459;23;20733;-67
2022/11/08 15:06:20;;;;;;;0.40;0.40;;;15.10;99.90;;;;;;6062579;23;20410;-67
2022/11/08 15:08:49;;;;;;;0.60;0.23;;;15.10;99.90;;;;;;6063359;23;20448;-67
2022/11/08 15:11:27;;;;;;;0.73;0.70;;;15.00;99.90;;;;;;6063530;23;20953;-66
2022/11/08 15:13:56;;;;;;;0.37;0.37;;;14.90;99.90;;;;;;6062609;23;20409;-68
2022/11/08 15:16:24;;;;;;;0.57;0.57;;;14.90;99.90;;;;;;6062542;23;20445;-67
2022/11/08 15:18:52;;;;;;;0.47;0.43;;;14.90;99.90;;;;;;6063039;23;20479;-67
2022/11/08 15:21:28;;;;;;;0.50;0.50;;;14.90;99.90;;;;;;6062084;23;20419;-67
2022/11/08 15:24:09;;;;;;;0.43;0.43;;;14.80;99.90;;;;;;6061432;23;20464;-66
2022/11/08 15:26:36;;;;;;;0.47;0.47;;;14.70;99.90;;;;;;6063474;23;20694;-67
2022/11/08 15:29:06;;;;;;;0.40;0.40;;;14.70;99.90;;;;;;6064232;23;20496;-67
2022/11/08 15:31:39;;;;;;;0.73;0.50;;;14.70;99.90;;;;;;6061741;23;20421;-66
2022/11/08 15:34:20;;;;;;;0.60;0.60;;;14.60;99.90;;;;;;6062843;23;20416;-66
2022/11/08 15:36:48;;;;;;;0.40;0.40;;;14.60;99.90;;;;;;6064750;23;20412;-66
2022/11/08 15:39:22;;;;;;;0.33;0.30;;;14.60;99.90;;;;;;6063789;23;20538;-67
2022/11/08 15:41:59;;;;;;;1.50;0.87;;;14.60;99.90;;;;;;6064365;23;20436;-67
2022/11/08 15:44:26;;;;;;;0.40;0.33;;;14.60;99.90;;;;;;6063647;23;20414;-68
2022/11/08 15:46:55;;;;;;;0.67;0.67;;;14.60;99.90;;;;;;6064334;23;20547;-67
2022/11/08 15:49:24;;;;;;;0.57;0.50;;;14.60;99.90;;;;;;6070831;23;20443;-67
2022/11/08 15:51:52;;;;;;;1.13;0.50;;;14.70;99.90;;;;;;6066444;23;20432;-67
2022/11/08 15:54:20;;;;;;;0.50;0.50;;;14.70;99.90;;;;;;6064789;23;20427;-67
2022/11/08 15:56:49;;;;;;;0.27;0.27;;;14.70;99.90;;;;;;6064596;23;20428;-67
2022/11/08 15:59:18;;;;;;;0.30;0.30;;;14.70;99.90;;;;;;6065929;23;20460;-68
2022/11/08 16:01:50;;;;;;;0.47;0.47;;;14.70;99.90;;;;;;6066885;23;20435;-68
2022/11/08 16:04:17;;;;;;;0.50;0.50;;;14.70;99.90;;;;;;6065655;23;20412;-67
2022/11/08 16:06:45;;;;;;;0.63;0.63;;;14.70;99.90;;;;;;6065490;23;20937;-67
2022/11/08 16:09:12;;;;;;;0.50;0.50;;;14.70;99.90;;;;;;6064985;23;20444;-68
2022/11/08 16:11:39;;;;;;;1.13;0.30;;;14.70;99.90;;;;;;6063967;23;20435;-67
2022/11/08 16:14:09;;;;;;;0.43;0.43;;;14.70;99.90;;;;;;6065060;23;20427;-68
2022/11/08 16:16:36;;;;;;;0.77;0.77;;;14.70;99.90;;;;;;6064571;23;20888;-66
2022/11/08 16:19:03;;;;;;;5.70;0.73;;;14.70;99.90;;;;;;6065140;23;20464;-69
2022/11/08 16:21:29;;;;;;;4.43;0.80;;;14.70;99.90;;;;;;6065001;23;20441;-66
2022/11/08 16:23:57;;;;;;;0.20;0.20;;;14.60;99.90;;;;;;6065004;23;20435;-68
2022/11/08 16:26:24;;;;;;;5.13;0.60;;;14.70;99.90;;;;;;6064807;23;20447;-67
2022/11/08 16:28:51;;;;;;;0.93;0.60;;;14.70;99.90;;;;;;6065136;23;20425;-67
2022/11/08 16:31:18;;;;;;;0.40;0.40;;;14.70;99.90;;;;;;6065539;23;20418;-65
2022/11/08 16:33:46;;;;;;;0.50;0.50;;;14.60;99.90;;;;;;6065246;23;20511;-67
2022/11/08 16:36:18;;;;;;;0.43;0.43;;;14.60;99.90;;;;;;6065907;23;20433;-67
2022/11/08 16:38:49;;;;;;;0.77;0.77;;;14.60;99.90;;;;;;6064919;23;20443;-67
2022/11/08 16:41:18;;;;;;;1.80;1.03;;;14.60;99.90;;;;;;6063695;23;20420;-67
2022/11/08 16:43:45;;;;;;;3.40;0.80;;;14.60;99.90;;;;;;6064356;23;20456;-69
2022/11/08 16:46:12;;;;;;;0.77;0.70;;;14.60;99.90;;;;;;6064990;23;20435;-67
2022/11/08 16:48:40;;;;;;;1.23;0.80;;;14.60;99.90;;;;;;6067028;23;20431;-66
2022/11/08 16:51:16;;;;;;;4.13;1.03;;;14.50;99.90;;;;;;6065565;23;20446;-66
2022/11/08 16:53:42;;;;;;;5.63;1.67;;;14.50;99.90;;;;;;6065816;23;20456;-66
2022/11/08 16:56:09;;;;;;;0.40;0.40;;;14.50;99.90;;;;;;6065228;23;20508;-68
2022/11/08 16:58:37;;;;;;;0.90;0.87;;;14.50;99.90;;;;;;6066124;23;20448;-68
2022/11/08 17:01:04;;;;;;;0.40;0.30;;;14.50;99.90;;;;;;6065374;23;20462;-67
2022/11/08 17:03:32;;;;;;;0.40;0.40;;;14.50;99.90;;;;;;6065500;23;20781;-68
2022/11/08 17:05:59;;;;;;;1.13;0.70;;;14.50;99.90;;;;;;6066653;23;20780;-67
2022/11/08 17:08:26;;;;;;;0.57;0.57;;;14.40;99.90;;;;;;6065138;23;20424;-68
2022/11/08 17:10:53;;;;;;;1.63;0.90;;;14.50;99.90;;;;;;6066799;23;20448;-68
2022/11/08 17:13:20;;;;;;;0.60;0.60;;;14.40;99.90;;;;;;6067084;23;20428;-68
2022/11/08 17:15:50;;;;;;;0.47;0.47;;;14.40;99.90;;;;;;6067656;23;20437;-68
2022/11/08 17:18:19;;;;;;;0.70;0.70;;;14.40;99.90;;;;;;6067501;23;20464;-68
2022/11/08 17:20:47;;;;;;;0.57;0.57;;;14.50;99.90;;;;;;6074664;23;20445;-67
2022/11/08 17:23:15;;;;;;;0.37;0.37;;;14.40;99.90;;;;;;6074901;23;21195;-68
2022/11/08 17:25:43;;;;;;;1.23;1.10;;;14.40;99.90;;;;;;6074383;23;20461;-67
2022/11/08 17:28:10;;;;;;;0.33;0.33;;;14.40;99.90;;;;;;6075745;23;20460;-67
2022/11/08 17:30:36;;;;;;;0.30;0.30;;;14.30;99.90;;;;;;6068081;23;20459;-68
2022/11/08 17:33:05;;;;;;;0.53;0.53;;;14.30;99.90;;;;;;6065703;23;20439;-68
2022/11/08 17:35:31;;;;;;;0.90;0.90;;;14.30;99.90;;;;;;6067645;23;20428;-71
2022/11/08 17:37:58;;;;;;;0.77;0.77;;;14.30;99.90;;;;;;6065329;23;20759;-67
2022/11/08 17:40:25;;;;;;;0.53;0.53;;;14.30;99.90;;;;;;6063665;23;20463;-68
2022/11/08 17:42:51;;;;;;;0.63;0.63;;;14.30;99.90;;;;;;6063821;23;21067;-67
2022/11/08 17:45:18;;;;;;;0.80;0.80;;;14.30;99.90;;;;;;6063916;23;20432;-68
2022/11/08 17:47:45;;;;;;;0.57;0.57;;;14.30;99.90;;;;;;6065230;23;20432;-68
2022/11/08 17:50:13;;;;;;;0.60;0.60;;;14.30;99.90;;;;;;6066201;23;20448;-68
2022/11/08 17:52:40;;;;;;;0.40;0.40;;;14.30;99.90;;;;;;6064342;23;20676;-67
2022/11/08 17:55:08;;;;;;;0.80;0.60;;;14.30;99.90;;;;;;6063717;23;20883;-68
2022/11/08 17:57:34;;;;;;;0.40;0.40;;;14.30;99.90;;;;;;6059041;23;20416;-67
2022/11/08 18:00:01;;;;;;;0.60;0.60;;;14.30;99.90;;;;;;6061693;23;20456;-67
2022/11/08 18:02:28;;;;;;;0.40;0.40;;;14.20;99.90;;;;;;6063780;23;20518;-66
2022/11/08 18:04:56;;;;;;;0.50;0.50;;;14.20;99.90;;;;;;6073257;23;20776;-67
2022/11/08 18:07:24;;;;;;;0.93;0.60;;;14.20;99.90;;;;;;6064678;23;20428;-68
2022/11/08 18:09:51;;;;;;;0.50;0.50;;;14.20;99.90;;;;;;6063909;23;20777;-68
2022/11/08 18:12:18;;;;;;;0.60;0.60;;;14.10;99.90;;;;;;6065250;23;20432;-68
2022/11/08 18:14:44;;;;;;;0.70;0.70;;;14.10;99.90;;;;;;6064217;23;20455;-68